Time;durP1;ratioP1;P1;durP2;ratioP2;P2;SDS_P1;SDS_P2;PMS_P1;PMS_P2;Temp;Humidity;BMP_temperature;BMP_pressure;BME280_temperature;BME280_humidity;BME280_pressure;Samples;Min_cycle;Max_cycle;Signal;HPM_P1;HPM_P2
2021/09/25 00:02:33;;;;;;;11.13;10.13;;;11.50;99.90;;;12.26;89.38;98096.94;5154430;28;20624;-61
2021/09/25 00:05:08;;;;;;;10.75;9.75;;;11.50;99.90;;;12.26;89.33;98096.06;5156978;28;20222;-61
2021/09/25 00:07:41;;;;;;;11.23;10.23;;;11.40;99.90;;;12.20;89.72;98091.50;5150114;28;20665;-61
2021/09/25 00:10:15;;;;;;;12.57;11.38;;;11.40;99.90;;;12.22;89.70;98094.13;5156189;28;20207;-62
2021/09/25 00:12:48;;;;;;;11.45;10.35;;;11.40;99.90;;;12.16;89.97;98090.44;5150658;28;20226;-62
2021/09/25 00:15:22;;;;;;;11.20;10.05;;;11.30;99.90;;;12.11;90.53;98091.00;5156961;28;20195;-60
2021/09/25 00:17:57;;;;;;;11.77;10.77;;;11.30;99.90;;;12.15;90.71;98091.22;5155952;28;20738;-61
2021/09/25 00:20:31;;;;;;;11.73;10.68;;;11.40;99.90;;;12.16;90.17;98092.09;5153785;28;20592;-61
2021/09/25 00:23:04;;;;;;;10.32;9.52;;;11.30;99.90;;;12.21;88.77;98089.81;5151894;28;20227;-62
2021/09/25 00:25:37;;;;;;;9.38;8.50;;;11.30;99.90;;;12.18;88.18;98093.97;5150811;28;20209;-61
2021/09/25 00:28:10;;;;;;;9.80;8.93;;;11.20;99.90;;;12.15;87.42;98093.78;5149355;28;20203;-61
2021/09/25 00:30:43;;;;;;;9.32;8.52;;;11.20;99.90;;;12.13;86.79;98097.97;5154187;28;20199;-62
2021/09/25 00:33:18;;;;;;;9.05;8.30;;;11.20;99.90;;;12.03;86.58;98090.56;5155589;28;20471;-62
2021/09/25 00:35:51;;;;;;;10.68;9.77;;;11.10;99.90;;;12.02;86.90;98091.38;5151310;28;20203;-62
2021/09/25 00:38:24;;;;;;;10.05;9.25;;;11.10;99.90;;;12.01;87.09;98093.84;5156329;28;20202;-60
2021/09/25 00:40:57;;;;;;;10.23;9.52;;;11.10;99.90;;;11.93;87.17;98091.75;5159242;28;20195;-61
2021/09/25 00:43:31;;;;;;;11.07;9.98;;;11.10;99.90;;;11.91;86.54;98093.34;5148218;28;20586;-61
2021/09/25 00:46:04;;;;;;;11.15;10.15;;;11.00;99.90;;;11.83;87.07;98080.88;5149088;28;20204;-62
2021/09/25 00:48:38;;;;;;;9.85;9.05;;;11.00;99.90;;;11.83;87.36;98083.44;5154390;28;20294;-60
2021/09/25 00:51:12;;;;;;;10.85;9.95;;;11.00;99.90;;;11.84;87.58;98080.06;5157164;28;20201;-61
2021/09/25 00:53:46;;;;;;;10.82;9.93;;;11.00;99.90;;;11.87;86.92;98087.94;5153937;28;20218;-60
2021/09/25 00:56:19;;;;;;;11.32;10.43;;;11.00;99.90;;;11.82;86.87;98097.03;5163679;28;20205;-62
2021/09/25 00:58:53;;;;;;;11.07;10.07;;;10.90;99.90;;;11.75;87.32;98092.34;5162169;28;20209;-61
2021/09/25 01:01:26;;;;;;;10.40;9.50;;;10.90;99.90;;;11.72;87.96;98095.63;5163373;28;20261;-61
2021/09/25 01:04:01;;;;;;;10.30;9.40;;;10.90;99.90;;;11.70;88.88;98098.13;5159949;28;20212;-60
2021/09/25 01:06:34;;;;;;;9.88;9.07;;;10.90;99.90;;;11.71;88.91;98099.00;5159047;28;20198;-61
2021/09/25 01:09:08;;;;;;;10.75;9.85;;;10.90;99.90;;;11.73;87.51;98103.41;5159418;28;20206;-61
2021/09/25 01:11:41;;;;;;;10.25;9.35;;;10.80;99.90;;;11.70;88.71;98103.25;5161389;28;20223;-62
2021/09/25 01:14:14;;;;;;;10.73;9.73;;;10.90;99.90;;;11.68;88.65;98099.69;5162333;28;20207;-61
2021/09/25 01:16:47;;;;;;;11.25;10.25;;;10.90;99.90;;;11.68;88.96;98102.25;5160425;28;20294;-60
2021/09/25 01:19:22;;;;;;;11.05;10.05;;;10.90;99.90;;;11.62;88.88;98094.25;5161544;28;20210;-61
2021/09/25 01:21:56;;;;;;;10.85;9.88;;;10.80;99.90;;;11.62;89.19;98091.69;5162448;28;20223;-61
2021/09/25 01:24:30;;;;;;;11.18;10.18;;;10.80;99.90;;;11.63;88.92;98101.13;5159936;28;20666;-61
2021/09/25 01:27:04;;;;;;;10.43;9.52;;;10.90;99.90;;;11.63;89.04;98100.25;5161415;28;20199;-60
2021/09/25 01:29:38;;;;;;;10.63;9.73;;;10.80;99.90;;;11.60;88.34;98097.50;5158706;28;20195;-61
2021/09/25 01:32:11;;;;;;;9.98;9.13;;;10.80;99.90;;;11.56;88.41;98093.91;5156071;28;20600;-61
2021/09/25 01:34:45;;;;;;;10.40;9.50;;;10.70;99.90;;;11.51;88.07;98090.19;5161330;28;20219;-61
2021/09/25 01:37:19;;;;;;;10.77;9.80;;;10.70;99.90;;;11.54;88.24;98095.47;5154159;28;20587;-61
2021/09/25 01:39:52;;;;;;;9.88;9.00;;;10.70;99.90;;;11.52;87.70;98091.06;5156149;28;20198;-60
2021/09/25 01:42:25;;;;;;;8.88;8.07;;;10.60;99.90;;;11.49;86.61;98095.19;5153203;28;20604;-61
2021/09/25 01:44:58;;;;;;;10.27;9.27;;;10.60;99.90;;;11.46;87.53;98086.47;5156056;28;20597;-61
2021/09/25 01:47:31;;;;;;;8.93;8.18;;;10.50;99.90;;;11.42;86.11;98090.53;5152138;28;20294;-61
2021/09/25 01:50:08;;;;;;;9.48;8.68;;;10.40;99.90;;;11.30;86.40;98105.16;5154894;28;20207;-60
2021/09/25 01:52:42;;;;;;;10.57;9.55;;;10.30;99.90;;;11.27;87.21;98100.78;5152701;28;20671;-62
2021/09/25 01:55:15;;;;;;;10.30;9.40;;;10.30;99.90;;;11.14;87.92;98098.28;5151519;28;20290;-60
2021/09/25 01:57:48;;;;;;;9.98;9.18;;;10.20;99.90;;;11.09;88.25;98089.47;5153488;28;20591;-61
2021/09/25 02:00:24;;;;;;;10.35;9.45;;;10.20;99.90;;;11.09;89.75;98094.56;5150144;28;20216;-61
2021/09/25 02:02:57;;;;;;;9.13;8.38;;;10.30;99.90;;;11.14;89.20;98102.53;5151670;28;20227;-61
2021/09/25 02:05:30;;;;;;;10.65;9.70;;;10.30;99.90;;;11.20;89.55;98103.75;5162991;28;20743;-60
2021/09/25 02:08:06;;;;;;;10.60;9.70;;;10.30;99.90;;;11.23;88.84;98106.50;5151627;28;20210;-61
2021/09/25 02:10:39;;;;;;;10.55;9.65;;;10.40;99.90;;;11.17;89.32;98101.03;5150549;28;20700;-60
2021/09/25 02:13:12;;;;;;;11.20;10.15;;;10.30;99.90;;;11.09;90.24;98097.13;5153684;28;20254;-61
2021/09/25 02:15:45;;;;;;;11.98;10.98;;;10.30;99.90;;;11.10;90.68;98096.34;5155702;28;20206;-61
2021/09/25 02:18:18;;;;;;;10.48;9.63;;;10.30;99.90;;;11.10;89.79;98103.13;5150880;28;20203;-61
2021/09/25 02:20:51;;;;;;;10.98;10.07;;;10.30;99.90;;;11.14;90.30;98108.53;5150005;28;20206;-60
2021/09/25 02:23:25;;;;;;;11.45;10.35;;;10.40;99.90;;;11.14;90.51;98113.63;5156222;28;20224;-60
2021/09/25 02:25:59;;;;;;;10.13;9.32;;;10.40;99.90;;;11.18;89.61;98115.56;5154362;28;20218;-61
2021/09/25 02:28:33;;;;;;;10.90;9.90;;;10.30;99.90;;;11.13;89.39;98114.44;5158984;28;20553;-58
2021/09/25 02:31:06;;;;;;;10.30;9.40;;;10.30;99.90;;;11.16;89.81;98124.84;5153216;28;20204;-60
2021/09/25 02:33:39;;;;;;;10.45;9.55;;;10.40;99.90;;;11.11;88.85;98123.69;5152166;28;20204;-59
2021/09/25 02:36:12;;;;;;;10.40;9.40;;;10.20;99.90;;;11.12;88.28;98132.25;5157543;28;20674;-60
2021/09/25 02:38:46;;;;;;;9.60;8.75;;;10.30;99.90;;;11.14;88.07;98134.09;5153277;28;20195;-60
2021/09/25 02:41:19;;;;;;;9.50;8.70;;;10.20;99.90;;;11.08;87.56;98133.75;5154793;28;20200;-61
2021/09/25 02:43:53;;;;;;;8.88;8.18;;;10.20;99.90;;;11.02;86.87;98125.72;5160181;28;20203;-59
2021/09/25 02:46:26;;;;;;;9.80;8.95;;;10.10;99.90;;;10.99;86.96;98128.09;5149571;28;20682;-61
2021/09/25 02:48:59;;;;;;;10.07;9.18;;;10.00;99.90;;;10.94;86.08;98114.16;5150748;28;20202;-61
2021/09/25 02:51:32;;;;;;;9.32;8.52;;;10.00;99.90;;;10.94;86.14;98119.25;5153893;28;20226;-60
2021/09/25 02:54:06;;;;;;;9.73;8.85;;;9.90;99.90;;;10.81;87.28;98110.84;5157653;28;20203;-60
2021/09/25 02:56:39;;;;;;;10.23;9.40;;;9.90;99.90;;;10.77;87.77;98110.56;5149071;28;20200;-61
2021/09/25 02:59:12;;;;;;;9.38;8.68;;;9.90;99.90;;;10.76;87.12;98109.69;5159671;28;20199;-61
2021/09/25 03:01:50;;;;;;;8.77;8.13;;;9.80;99.90;;;10.64;86.71;98108.06;5157638;28;20235;-60
2021/09/25 03:04:23;;;;;;;9.05;8.35;;;9.80;99.90;;;10.66;86.76;98101.38;5156660;28;20294;-60
2021/09/25 03:06:56;;;;;;;9.63;8.82;;;9.80;99.90;;;10.59;87.79;98105.25;5154251;28;20204;-60
2021/09/25 03:09:31;;;;;;;10.00;9.10;;;9.70;99.90;;;10.60;87.39;98107.88;5151189;28;20202;-60
2021/09/25 03:12:04;;;;;;;10.18;9.27;;;9.80;99.90;;;10.55;87.18;98108.38;5150744;28;20223;-61
2021/09/25 03:14:38;;;;;;;10.32;9.45;;;9.70;99.90;;;10.55;86.57;98100.72;5157292;28;20202;-61
2021/09/25 03:17:11;;;;;;;10.40;9.50;;;9.70;99.90;;;10.57;87.34;98111.94;5150861;28;20207;-60
2021/09/25 03:19:46;;;;;;;10.98;10.02;;;9.70;99.90;;;10.51;88.32;98106.44;5153098;28;20294;-60
2021/09/25 03:22:19;;;;;;;10.57;9.63;;;9.70;99.90;;;10.50;89.27;98104.66;5155166;28;20887;-58
2021/09/25 03:24:54;;;;;;;10.25;9.35;;;9.70;99.90;;;10.52;89.21;98108.19;5150280;28;20219;-62
2021/09/25 03:27:27;;;;;;;11.18;10.27;;;9.80;99.90;;;10.52;88.69;98105.63;5154193;28;20574;-58
2021/09/25 03:30:00;;;;;;;10.23;9.33;;;9.70;99.90;;;10.51;89.76;98101.31;5155275;28;20203;-60
2021/09/25 03:32:33;;;;;;;11.20;10.20;;;9.70;99.90;;;10.50;89.39;98090.22;5157166;28;20219;-61
2021/09/25 03:35:08;;;;;;;11.15;10.05;;;9.70;99.90;;;10.56;89.87;98094.84;5152026;28;20222;-60
2021/09/25 03:37:41;;;;;;;10.77;9.88;;;9.80;99.90;;;10.54;90.70;98091.28;5153139;28;20195;-60
2021/09/25 03:40:15;;;;;;;10.18;9.38;;;9.70;99.90;;;10.54;89.96;98088.72;5154525;28;20203;-61
2021/09/25 03:42:49;;;;;;;11.73;10.55;;;9.80;99.90;;;10.51;89.00;98086.00;5155509;28;20264;-59
2021/09/25 03:45:23;;;;;;;10.52;9.63;;;9.60;99.90;;;10.43;89.57;98082.09;5154329;28;20559;-60
2021/09/25 03:47:59;;;;;;;10.27;9.38;;;9.60;99.90;;;10.36;90.01;98083.41;5152136;28;20205;-59
2021/09/25 03:50:32;;;;;;;10.95;9.98;;;9.60;99.90;;;10.43;89.81;98080.41;5152106;28;20656;-60
2021/09/25 03:53:05;;;;;;;11.15;10.02;;;9.60;99.90;;;10.47;89.72;98086.59;5153537;28;20219;-59
2021/09/25 03:55:40;;;;;;;10.83;9.83;;;9.60;99.90;;;10.44;90.81;98082.16;5150585;28;20196;-60
2021/09/25 03:58:13;;;;;;;10.45;9.55;;;9.70;99.90;;;10.46;90.21;98079.72;5153578;28;20201;-59
2021/09/25 04:00:46;;;;;;;11.70;10.45;;;9.70;99.90;;;10.48;89.58;98067.91;5153576;28;20191;-61
2021/09/25 04:03:19;;;;;;;11.70;10.50;;;9.70;99.90;;;10.47;89.22;98064.50;5153523;28;20233;-61
2021/09/25 04:05:52;;;;;;;10.57;9.53;;;9.70;99.90;;;10.35;89.88;98068.84;5149845;28;20318;-61
2021/09/25 04:08:26;;;;;;;12.00;10.90;;;9.60;99.90;;;10.32;89.23;98066.97;5152925;28;20206;-61
2021/09/25 04:11:00;;;;;;;11.97;10.77;;;9.50;99.90;;;10.23;90.58;98066.38;5158218;28;20203;-61
2021/09/25 04:13:33;;;;;;;11.57;10.37;;;9.40;99.90;;;10.18;90.49;98069.44;5157075;28;20233;-61
2021/09/25 04:16:06;;;;;;;11.00;10.03;;;9.40;99.90;;;10.17;89.98;98067.69;5158598;28;20202;-61
2021/09/25 04:18:39;;;;;;;10.63;9.63;;;9.30;99.90;;;10.16;91.08;98077.03;5159661;28;20294;-61
2021/09/25 04:21:14;;;;;;;11.38;10.38;;;9.40;99.90;;;10.19;91.20;98081.41;5157487;28;20686;-61
2021/09/25 04:23:47;;;;;;;11.30;10.30;;;9.40;99.90;;;10.22;90.37;98072.28;5157377;28;20207;-61
2021/09/25 04:26:21;;;;;;;11.38;10.38;;;9.40;99.90;;;10.24;90.14;98073.25;5154080;28;20224;-61
2021/09/25 04:28:56;;;;;;;12.05;11.05;;;9.40;99.90;;;10.22;90.81;98077.41;5157931;28;20297;-60
2021/09/25 04:31:34;;;;;;;11.88;10.77;;;9.40;99.90;;;10.24;90.17;98075.78;5154316;28;20314;-61
2021/09/25 04:34:07;;;;;;;12.80;11.73;;;9.40;99.90;;;10.19;89.27;98072.09;5159409;28;20199;-61
2021/09/25 04:36:41;;;;;;;13.68;12.57;;;9.40;99.90;;;10.12;90.85;98073.38;5154940;28;20210;-60
2021/09/25 04:39:14;;;;;;;11.87;10.87;;;9.40;99.90;;;10.09;90.50;98062.97;5156357;28;20665;-62
2021/09/25 04:41:48;;;;;;;10.02;9.23;;;9.40;99.90;;;10.07;89.58;98072.22;5154176;28;20249;-61
2021/09/25 04:44:21;;;;;;;9.13;8.33;;;9.20;99.90;;;10.02;88.81;98068.50;5155561;28;20205;-61
2021/09/25 04:46:54;;;;;;;9.70;8.90;;;9.20;99.90;;;9.92;89.05;98066.13;5155059;28;20518;-61
2021/09/25 04:49:28;;;;;;;9.83;9.03;;;9.10;99.90;;;9.95;88.40;98070.56;5156290;28;20564;-61
2021/09/25 04:52:01;;;;;;;9.80;9.00;;;9.10;99.90;;;9.88;88.14;98069.31;5158167;28;20280;-62
2021/09/25 04:54:34;;;;;;;10.53;9.63;;;9.00;99.90;;;9.88;87.98;98066.75;5152867;28;20635;-61
2021/09/25 04:57:08;;;;;;;9.90;9.10;;;9.10;99.90;;;9.92;87.95;98064.47;5153965;28;20282;-62
2021/09/25 04:59:41;;;;;;;9.80;8.97;;;9.10;99.90;;;9.90;89.06;98063.50;5152410;28;20199;-60
2021/09/25 05:02:14;;;;;;;9.47;8.60;;;9.20;99.90;;;9.88;88.42;98065.06;5155942;28;20241;-61
2021/09/25 05:04:48;;;;;;;9.60;8.70;;;9.10;99.90;;;9.88;87.75;98064.19;5159709;28;20297;-61
2021/09/25 05:07:21;;;;;;;8.67;7.97;;;9.00;99.90;;;9.90;88.13;98068.63;5155746;28;20709;-61
2021/09/25 05:09:54;;;;;;;9.70;8.90;;;9.00;99.90;;;9.90;87.57;98076.28;5152924;28;20441;-62
2021/09/25 05:12:28;;;;;;;9.27;8.47;;;9.10;99.90;;;9.87;88.23;98072.63;5149093;28;20770;-61
2021/09/25 05:15:01;;;;;;;10.97;9.87;;;9.10;99.90;;;9.85;88.08;98080.19;5155023;28;20651;-61
2021/09/25 05:17:35;;;;;;;11.50;10.43;;;9.10;99.90;;;9.87;88.36;98073.53;5149769;28;20302;-61
2021/09/25 05:20:11;;;;;;;10.43;9.53;;;9.10;99.90;;;9.88;88.29;98071.84;5154430;28;20204;-61
2021/09/25 05:22:44;;;;;;;11.73;10.27;;;9.10;99.90;;;9.91;88.59;98080.59;5147762;28;20698;-62
2021/09/25 05:25:17;;;;;;;10.77;9.87;;;9.10;99.90;;;9.90;90.08;98081.38;5152435;28;20204;-61
2021/09/25 05:27:51;;;;;;;10.63;9.63;;;9.20;99.90;;;9.93;89.42;98079.03;5157200;28;20728;-58
2021/09/25 05:30:24;;;;;;;11.23;10.23;;;9.20;99.90;;;9.92;89.26;98079.78;5157839;28;20205;-62
2021/09/25 05:32:57;;;;;;;11.20;10.10;;;9.10;99.90;;;9.98;89.09;98079.28;5166355;28;20316;-62
2021/09/25 05:35:30;;;;;;;11.03;10.00;;;9.20;99.90;;;10.00;88.68;98087.94;5155732;28;20203;-62
2021/09/25 05:38:04;;;;;;;11.47;10.37;;;9.20;99.90;;;10.01;89.18;98087.13;5164039;28;20199;-62
2021/09/25 05:40:37;;;;;;;11.87;10.77;;;9.20;99.90;;;10.02;88.36;98090.59;5159761;28;20215;-62
2021/09/25 05:43:11;;;;;;;11.93;10.83;;;9.30;99.90;;;10.08;89.80;98089.31;5159329;28;20229;-62
2021/09/25 05:45:44;;;;;;;10.73;9.77;;;9.30;99.90;;;10.13;88.97;98087.94;5162002;28;20199;-62
2021/09/25 05:48:17;;;;;;;10.83;9.93;;;9.30;99.90;;;10.19;88.12;98089.97;5156681;28;20203;-61
2021/09/25 05:50:50;;;;;;;11.37;10.27;;;9.40;99.90;;;10.19;88.88;98091.63;5160861;28;20298;-62
2021/09/25 05:53:23;;;;;;;11.10;10.10;;;9.40;99.90;;;10.19;88.18;98092.53;5158073;28;20237;-60
2021/09/25 05:55:56;;;;;;;11.43;10.33;;;9.40;99.90;;;10.22;88.71;98095.28;5156180;28;20203;-62
2021/09/25 05:58:31;;;;;;;10.13;9.33;;;9.50;99.90;;;10.27;87.87;98096.50;5158571;28;20294;-61
2021/09/25 06:01:04;;;;;;;11.07;10.10;;;9.50;99.90;;;10.35;87.89;98094.38;5156739;28;20195;-60
2021/09/25 06:03:37;;;;;;;10.80;9.90;;;9.50;99.90;;;10.44;86.54;98088.94;5158482;28;20208;-61
2021/09/25 06:06:11;;;;;;;11.27;10.27;;;9.60;99.90;;;10.54;86.13;98088.72;5157726;28;20216;-61
2021/09/25 06:08:44;;;;;;;9.93;9.07;;;9.70;99.90;;;10.77;86.55;98096.13;5149669;28;20262;-61
2021/09/25 06:11:17;;;;;;;10.15;9.27;;;9.90;99.90;;;11.17;85.80;98090.78;5152641;28;20723;-63
2021/09/25 06:13:51;;;;;;;9.70;8.90;;;10.10;99.90;;;11.54;84.32;98085.25;5149820;28;20577;-60
2021/09/25 06:16:24;;;;;;;10.40;9.45;;;10.40;99.90;;;11.91;82.36;98082.22;5151877;28;20289;-57
2021/09/25 06:18:58;;;;;;;9.82;8.95;;;10.70;99.90;;;12.23;80.95;98086.53;5154233;28;20304;-63
2021/09/25 06:21:31;;;;;;;10.32;9.30;;;11.10;99.90;;;12.59;78.38;98082.50;5153237;28;20219;-61
2021/09/25 06:24:05;;;;;;;10.02;9.13;;;11.20;99.90;;;12.82;77.24;98080.25;5154545;28;20196;-60
2021/09/25 06:26:39;;;;;;;9.82;9.02;;;11.40;99.90;;;13.22;75.01;98071.97;5151544;28;20614;-61
2021/09/25 06:29:13;;;;;;;10.98;9.88;;;11.80;99.90;;;13.63;74.42;98068.06;5155028;28;20207;-61
2021/09/25 06:31:46;;;;;;;10.70;9.73;;;12.10;99.90;;;14.03;72.47;98072.53;5156893;28;20594;-61
2021/09/25 06:34:19;;;;;;;10.10;9.30;;;12.30;99.90;;;14.48;71.19;98076.34;5154968;28;20211;-61
2021/09/25 06:36:53;;;;;;;10.07;9.18;;;12.60;99.90;;;14.84;68.66;98077.09;5152124;28;20559;-63
2021/09/25 06:39:26;;;;;;;10.32;9.43;;;12.90;99.90;;;15.22;67.19;98067.59;5150106;28;20204;-60
2021/09/25 06:41:59;;;;;;;10.90;9.98;;;13.10;99.90;;;15.45;66.05;98071.13;5146499;28;20255;-61
2021/09/25 06:44:33;;;;;;;11.98;10.98;;;13.30;99.90;;;15.84;64.60;98075.28;5157266;28;20203;-61
2021/09/25 06:47:07;;;;;;;12.13;11.02;;;13.50;99.90;;;16.19;63.74;98069.78;5151503;28;20644;-60
2021/09/25 06:49:40;;;;;;;11.10;10.00;;;13.70;99.90;;;16.47;63.35;98065.66;5152809;28;20289;-63
2021/09/25 06:52:13;;;;;;;12.75;11.60;;;14.00;99.90;;;16.47;63.04;98070.84;5153813;28;20219;-62
2021/09/25 06:54:46;;;;;;;12.02;10.93;;;14.20;99.90;;;16.38;63.56;98075.66;5154989;28;20204;-61
2021/09/25 06:57:19;;;;;;;12.25;11.15;;;14.30;99.90;;;16.31;63.53;98078.81;5150454;28;20197;-61
2021/09/25 06:59:53;;;;;;;11.55;10.45;;;14.70;99.90;;;16.31;64.39;98073.66;5150628;28;20218;-61
2021/09/25 07:02:26;;;;;;;10.95;10.05;;;14.80;99.90;;;16.31;64.01;98071.06;5155832;28;20227;-61
2021/09/25 07:05:00;;;;;;;11.45;10.55;;;14.90;99.90;;;16.23;64.47;98067.34;5155771;28;20207;-62
2021/09/25 07:07:33;;;;;;;11.93;10.75;;;14.80;99.90;;;16.46;64.22;98081.97;5158359;28;20263;-62
2021/09/25 07:10:08;;;;;;;10.90;9.90;;;15.00;99.90;;;16.72;63.63;98082.06;5148199;28;20203;-62
2021/09/25 07:12:41;;;;;;;11.82;10.73;;;15.30;99.90;;;16.96;63.54;98077.81;5151617;28;20227;-60
2021/09/25 07:15:15;;;;;;;10.57;9.68;;;15.50;99.90;;;17.06;62.29;98076.44;5154105;28;20211;-62
2021/09/25 07:17:48;;;;;;;11.32;10.32;;;15.60;99.90;;;17.30;62.24;98078.97;5147728;28;20202;-62
2021/09/25 07:20:21;;;;;;;11.18;10.20;;;15.90;99.90;;;17.29;62.25;98077.22;5146965;28;20204;-62
2021/09/25 07:22:54;;;;;;;11.68;10.68;;;15.90;99.90;;;17.46;62.05;98077.81;5144708;28;20751;-62
2021/09/25 07:25:29;;;;;;;12.30;11.20;;;16.10;99.90;;;17.69;62.50;98074.25;5149680;28;20656;-62
2021/09/25 07:28:02;;;;;;;10.95;9.95;;;16.30;99.90;;;17.88;61.20;98080.03;5150333;28;20231;-62
2021/09/25 07:30:41;;;;;;;11.48;10.48;;;16.40;99.90;;;17.99;60.75;98082.13;5148255;28;20294;-63
2021/09/25 07:33:14;;;;;;;11.07;9.80;;;16.50;99.90;;;18.13;60.32;98081.69;5154817;28;20219;-62
2021/09/25 07:35:47;;;;;;;10.75;9.95;;;16.60;99.90;;;18.32;59.74;98088.31;5161715;28;20649;-63
2021/09/25 07:38:20;;;;;;;9.80;9.00;;;16.80;99.90;;;18.43;59.96;98086.94;5150636;28;20195;-62
2021/09/25 07:40:54;;;;;;;11.15;10.18;;;17.00;99.90;;;18.57;59.95;98090.81;5147266;28;20203;-63
2021/09/25 07:43:28;;;;;;;10.98;9.98;;;17.20;99.90;;;18.65;59.80;98094.47;5157551;28;20219;-64
2021/09/25 07:46:02;;;;;;;11.00;10.10;;;17.40;99.90;;;18.86;59.59;98089.09;5157092;28;20310;-63
2021/09/25 07:48:35;;;;;;;10.40;9.50;;;17.50;99.90;;;19.09;59.06;98086.25;5153232;28;20317;-63
2021/09/25 07:51:08;;;;;;;11.35;10.30;;;17.70;99.90;;;19.11;59.13;98085.47;5155867;28;20301;-63
2021/09/25 07:53:41;;;;;;;10.48;9.60;;;17.80;99.90;;;19.25;58.71;98078.03;5154163;28;20234;-63
2021/09/25 07:56:14;;;;;;;10.75;9.85;;;18.00;99.90;;;19.50;58.67;98076.06;5159908;28;20199;-63
2021/09/25 07:58:47;;;;;;;10.80;9.77;;;18.20;99.90;;;19.61;58.14;98074.63;5157500;28;20199;-62
2021/09/25 08:01:22;;;;;;;10.27;9.45;;;18.40;99.90;;;19.69;57.59;98093.91;5149014;28;20282;-63
2021/09/25 08:03:55;;;;;;;11.68;10.65;;;18.60;99.90;;;19.79;57.44;98093.25;5155069;28;20294;-63
2021/09/25 08:06:28;;;;;;;11.50;10.40;;;18.60;99.90;;;19.92;57.59;98088.38;5155256;28;20299;-63
2021/09/25 08:09:01;;;;;;;10.85;9.90;;;18.70;99.90;;;20.06;57.47;98097.38;5151093;28;20223;-64
2021/09/25 08:11:34;;;;;;;10.70;9.60;;;18.80;99.90;;;20.13;57.43;98099.25;5144079;28;20220;-63
2021/09/25 08:14:08;;;;;;;10.82;9.73;;;18.90;99.90;;;20.20;57.09;98095.06;5149015;28;20207;-63
2021/09/25 08:16:42;;;;;;;10.63;9.73;;;19.10;99.90;;;20.29;57.00;98094.41;5151132;28;20586;-62
2021/09/25 08:19:15;;;;;;;11.18;10.25;;;19.20;99.90;;;20.37;57.20;98090.25;5156148;28;20982;-64
2021/09/25 08:21:48;;;;;;;11.05;10.02;;;19.40;99.90;;;20.39;57.29;98086.88;5152596;28;20220;-64
2021/09/25 08:24:21;;;;;;;11.20;10.20;;;19.40;99.90;;;20.55;57.54;98082.06;5152400;28;20660;-63
2021/09/25 08:26:55;;;;;;;10.80;9.80;;;19.60;99.90;;;20.67;57.43;98083.16;5152782;28;20676;-62
2021/09/25 08:29:28;;;;;;;9.80;9.10;;;19.70;99.90;;;20.84;56.98;98087.84;5154858;28;20289;-62
2021/09/25 08:32:04;;;;;;;9.55;8.68;;;19.90;99.90;;;21.03;56.75;98084.75;5148675;28;20226;-62
2021/09/25 08:34:37;;;;;;;10.40;9.50;;;20.20;99.90;;;20.94;56.69;98071.56;5156651;28;20210;-63
2021/09/25 08:37:11;;;;;;;9.40;8.50;;;20.10;99.90;;;21.05;56.90;98067.47;5148745;28;20580;-64
2021/09/25 08:39:44;;;;;;;9.63;8.63;;;20.20;99.90;;;21.24;56.36;98066.09;5155190;28;20575;-62
2021/09/25 08:42:19;;;;;;;8.90;8.20;;;20.50;99.90;;;21.48;55.83;98070.88;5147612;28;20254;-64
2021/09/25 08:44:54;;;;;;;8.93;8.15;;;20.90;99.90;;;21.61;55.58;98065.88;5148658;28;20202;-64
2021/09/25 08:47:28;;;;;;;8.85;8.13;;;20.90;99.90;;;21.72;55.50;98070.41;5147637;28;20250;-64
2021/09/25 08:50:02;;;;;;;9.80;8.90;;;21.00;99.90;;;21.79;55.28;98072.25;5156000;28;20199;-61
2021/09/25 08:52:35;;;;;;;10.18;9.27;;;21.10;99.90;;;21.89;55.49;98068.09;5153871;28;20223;-64
2021/09/25 08:55:10;;;;;;;10.27;9.48;;;21.20;99.90;;;21.98;55.86;98062.16;5146549;28;20670;-64
2021/09/25 08:57:48;;;;;;;9.57;8.75;;;21.10;99.90;;;22.11;55.35;98060.59;5154235;28;20242;-62
2021/09/25 09:00:36;;;;;;;9.00;8.20;;;21.30;99.90;;;22.25;55.13;98059.97;5153562;28;20207;-62
2021/09/25 09:03:27;;;;;;;8.85;8.15;;;21.50;99.90;;;22.33;55.12;98054.88;5151504;28;20227;-61
2021/09/25 09:06:13;;;;;;;9.68;8.75;;;21.60;99.90;;;22.41;54.41;98049.78;5149106;28;20208;-62
2021/09/25 09:08:49;;;;;;;8.90;8.20;;;21.80;99.90;;;22.59;54.40;98056.94;5160359;28;20213;-62
2021/09/25 09:11:24;;;;;;;9.15;8.43;;;21.90;99.90;;;22.54;55.50;98054.25;5163230;28;20298;-59
2021/09/25 09:14:01;;;;;;;8.55;7.85;;;21.90;99.90;;;22.68;55.81;98054.44;5152911;28;20693;-61
2021/09/25 09:16:34;;;;;;;8.80;8.10;;;22.10;99.90;;;22.80;54.93;98053.69;5159135;28;20191;-62
2021/09/25 09:19:08;;;;;;;8.65;7.95;;;22.10;99.90;;;22.89;54.07;98040.78;5156517;28;20504;-62
2021/09/25 09:21:41;;;;;;;9.40;8.50;;;22.30;99.90;;;22.94;54.29;98039.09;5153931;28;20229;-62
2021/09/25 09:24:16;;;;;;;8.43;7.72;;;22.30;99.90;;;23.03;54.10;98040.97;5158096;28;20203;-61
2021/09/25 09:26:49;;;;;;;9.00;8.30;;;22.40;99.90;;;23.21;54.51;98032.44;5152328;28;20203;-64
2021/09/25 09:29:33;;;;;;;8.18;7.53;;;22.60;99.90;;;23.30;53.96;98028.19;5158120;28;20215;-64
2021/09/25 09:32:11;;;;;;;8.82;8.13;;;22.70;99.90;;;23.36;54.48;98033.47;5152951;28;20694;-65
2021/09/25 09:34:45;;;;;;;8.50;7.70;;;22.80;99.90;;;23.45;53.91;98037.03;5153869;28;20282;-63
2021/09/25 09:37:20;;;;;;;7.45;6.93;;;22.80;99.90;;;23.54;54.36;98031.88;5153092;28;20702;-63
2021/09/25 09:40:00;;;;;;;7.57;6.97;;;22.90;99.90;;;23.68;53.88;98035.47;5157802;28;20202;-63
2021/09/25 09:42:34;;;;;;;7.97;7.38;;;23.10;99.90;;;23.70;53.44;98036.41;5151696;28;20805;-64
2021/09/25 09:45:08;;;;;;;7.35;6.85;;;23.10;99.90;;;23.70;54.18;98028.56;5152776;28;20250;-63
2021/09/25 09:47:45;;;;;;;7.50;6.88;;;23.10;99.90;;;23.82;54.27;98031.25;5158481;28;20209;-63
2021/09/25 09:50:21;;;;;;;7.53;6.93;;;23.20;99.90;;;23.88;53.13;98029.56;5156284;28;20585;-63
2021/09/25 09:52:54;;;;;;;6.97;6.40;;;23.20;99.90;;;23.78;53.16;98026.91;5163045;28;20317;-62
2021/09/25 09:55:27;;;;;;;6.70;6.13;;;23.20;99.90;;;24.01;52.05;98019.22;5153814;28;20890;-62
2021/09/25 09:58:01;;;;;;;6.07;5.68;;;23.40;99.20;;;24.15;50.08;98023.63;5153993;28;20581;-62
2021/09/25 10:00:36;;;;;;;5.57;5.18;;;23.50;98.00;;;23.96;49.28;98017.44;5150512;28;20200;-63
2021/09/25 10:03:11;;;;;;;6.07;5.57;;;23.30;97.70;;;24.01;49.70;98010.50;5154671;28;20637;-63
2021/09/25 10:05:46;;;;;;;5.90;5.40;;;23.30;98.00;;;24.23;48.70;98011.50;5157058;28;20187;-63
2021/09/25 10:08:20;;;;;;;5.80;5.40;;;23.50;97.10;;;24.27;49.72;98011.53;5157511;28;20601;-62
2021/09/25 10:10:53;;;;;;;6.30;5.80;;;23.60;97.90;;;24.40;50.64;98011.56;5157819;28;20207;-63
2021/09/25 10:13:27;;;;;;;5.28;4.82;;;23.80;98.00;;;24.47;47.21;97997.72;5151426;28;20231;-62
2021/09/25 10:16:00;;;;;;;4.82;4.32;;;23.90;95.70;;;24.50;46.27;98003.81;5150221;28;20691;-63
2021/09/25 10:18:34;;;;;;;5.30;5.00;;;23.90;95.00;;;24.55;45.85;97998.59;5151991;28;20215;-64
2021/09/25 10:21:14;;;;;;;5.03;4.72;;;24.00;95.00;;;24.58;47.92;98003.84;5155728;28;20205;-62
2021/09/25 10:23:51;;;;;;;5.75;5.22;;;24.00;96.20;;;24.78;49.08;98000.41;5154404;28;20675;-62
2021/09/25 10:26:26;;;;;;;5.55;5.05;;;24.00;96.90;;;24.77;46.35;98003.91;5160021;28;20297;-63
2021/09/25 10:29:03;;;;;;;5.43;4.88;;;24.10;94.90;;;24.84;46.10;97995.19;5156036;28;20595;-63
2021/09/25 10:31:36;;;;;;;5.50;5.10;;;24.10;94.70;;;24.92;45.26;97996.09;5152596;28;20218;-63
2021/09/25 10:34:14;;;;;;;5.00;4.70;;;24.20;94.20;;;24.85;46.14;97989.13;5159377;28;20616;-63
2021/09/25 10:36:53;;;;;;;5.25;4.85;;;24.30;95.00;;;24.96;46.43;97992.63;5148805;28;20631;-63
2021/09/25 10:39:36;;;;;;;5.32;4.90;;;24.30;95.30;;;25.06;44.77;97986.53;5158900;28;20629;-62
2021/09/25 10:42:13;;;;;;;4.88;4.57;;;24.40;94.10;;;25.03;44.85;97983.03;5159571;28;20258;-63
2021/09/25 10:44:50;;;;;;;5.10;4.70;;;24.40;93.90;;;24.99;44.66;97979.56;5160252;28;20545;-63